Time;durP1;ratioP1;P1;durP2;ratioP2;P2;SDS_P1;SDS_P2;PMS_P1;PMS_P2;Temp;Humidity;BMP_temperature;BMP_pressure;BME280_temperature;BME280_humidity;BME280_pressure;Samples;Min_cycle;Max_cycle;Signal;HPM_P1;HPM_P2
2024/04/02 00:01:29;;;;;;;0.30;0.20;;;;;;;10.01;95.94;99142.19;4955339;28;20231;-50
2024/04/02 00:03:54;;;;;;;0.30;0.20;;;;;;;10.06;95.44;99142.81;4962837;28;20605;-50
2024/04/02 00:06:20;;;;;;;0.30;0.20;;;;;;;10.16;95.87;99140.63;4956031;28;20727;-50
2024/04/02 00:08:46;;;;;;;0.30;0.20;;;;;;;10.22;95.44;99143.03;4963244;28;20216;-50
2024/04/02 00:11:11;;;;;;;0.30;0.20;;;;;;;10.15;95.73;99140.69;4969300;28;20219;-50
2024/04/02 00:13:37;;;;;;;0.30;0.20;;;;;;;10.38;95.92;99146.69;4965101;28;20223;-50
2024/04/02 00:16:02;;;;;;;0.30;0.20;;;;;;;10.35;95.65;99148.63;4975418;28;20326;-50
2024/04/02 00:18:29;;;;;;;0.30;0.20;;;;;;;10.26;96.05;99160.53;4967165;28;20293;-50
2024/04/02 00:21:00;;;;;;;0.30;0.20;;;;;;;10.36;96.26;99158.31;4975331;28;20272;-50
2024/04/02 00:23:25;;;;;;;0.30;0.20;;;;;;;10.41;96.40;99166.94;4971937;28;20456;-50
2024/04/02 00:26:01;;;;;;;0.30;0.20;;;;;;;10.29;95.98;99168.38;4971945;28;20899;-50
2024/04/02 00:28:27;;;;;;;0.30;0.20;;;;;;;10.27;96.33;99167.56;4966036;28;20688;-50
2024/04/02 00:30:53;;;;;;;0.30;0.20;;;;;;;10.31;95.88;99177.16;4972950;28;20470;-50
2024/04/02 00:33:18;;;;;;;0.30;0.20;;;;;;;10.26;95.60;99171.16;4975090;28;20215;-51
2024/04/02 00:35:44;;;;;;;0.30;0.20;;;;;;;10.52;96.18;99179.72;4974666;28;20230;-51
2024/04/02 00:38:09;;;;;;;0.30;0.20;;;;;;;10.35;95.21;99185.81;4993103;23;20581;-47
2024/04/02 00:40:41;;;;;;;0.30;0.20;;;;;;;10.57;95.18;99191.03;4983934;28;20301;-47
2024/04/02 00:43:07;;;;;;;0.30;0.20;;;;;;;10.38;95.01;99197.16;4997245;28;20207;-48
2024/04/02 00:45:33;;;;;;;0.30;0.20;;;;;;;10.54;93.93;99185.84;5012402;28;20461;-47
2024/04/02 00:47:58;;;;;;;0.30;0.20;;;;;;;10.52;94.45;99195.69;4992476;28;21019;-48
2024/04/02 00:50:25;;;;;;;0.30;0.20;;;;;;;10.36;94.25;99195.50;4962245;28;20226;-48
2024/04/02 00:52:51;;;;;;;0.30;0.20;;;;;;;10.47;94.03;99201.22;4986482;28;20694;-48
2024/04/02 00:55:16;;;;;;;0.97;0.97;;;;;;;10.65;93.59;99210.97;4968382;28;20465;-50
2024/04/02 00:57:42;;;;;;;0.30;0.20;;;;;;;10.53;93.56;99214.19;4994532;28;20719;-47
2024/04/02 01:00:08;;;;;;;0.30;0.20;;;;;;;10.56;93.50;99211.44;4964705;28;20751;-48
2024/04/02 01:02:33;;;;;;;0.30;0.20;;;;;;;10.49;93.64;99225.91;4982363;28;20246;-48
2024/04/02 01:04:59;;;;;;;0.30;0.20;;;;;;;10.34;94.20;99231.91;4992320;28;20226;-48
2024/04/02 01:07:25;;;;;;;0.30;0.20;;;;;;;10.41;93.89;99224.53;4994160;28;20242;-48
2024/04/02 01:09:51;;;;;;;0.30;0.20;;;;;;;10.38;93.91;99229.03;4980895;28;20985;-47
2024/04/02 01:12:16;;;;;;;0.30;0.20;;;;;;;10.49;93.94;99233.88;4994160;28;20218;-47
2024/04/02 01:14:43;;;;;;;0.30;0.20;;;;;;;10.43;94.18;99228.00;4994205;28;20223;-48
2024/04/02 01:17:09;;;;;;;0.30;0.20;;;;;;;10.82;93.15;99239.44;4983333;28;20246;-48
2024/04/02 01:19:35;;;;;;;0.30;0.20;;;;;;;10.25;93.89;99240.28;4982837;28;20573;-48
2024/04/02 01:22:01;;;;;;;0.30;0.20;;;;;;;10.25;93.80;99246.47;4976597;28;20473;-48
2024/04/02 01:24:27;;;;;;;0.30;0.20;;;;;;;10.42;93.65;99237.75;4991327;28;20545;-47
2024/04/02 01:26:53;;;;;;;0.30;0.20;;;;;;;10.48;94.24;99237.47;4993744;28;20647;-47
2024/04/02 01:29:19;;;;;;;0.30;0.20;;;;;;;10.39;93.76;99236.06;4985541;28;20467;-47
2024/04/02 01:31:44;;;;;;;0.30;0.20;;;;;;;10.45;93.58;99237.63;4976170;28;20457;-48
2024/04/02 01:34:12;;;;;;;0.30;0.20;;;;;;;10.24;94.30;99238.56;4967758;28;20226;-47
2024/04/02 01:36:38;;;;;;;0.30;0.20;;;;;;;10.12;94.51;99239.06;4984074;28;20248;-48
2024/04/02 01:39:03;;;;;;;0.30;0.20;;;;;;;10.17;94.48;99248.56;4969664;28;20924;-48
2024/04/02 01:41:29;;;;;;;0.30;0.20;;;;;;;10.11;94.88;99243.50;4984920;28;20226;-47
2024/04/02 01:43:54;;;;;;;0.30;0.20;;;;;;;10.00;95.54;99243.09;4980748;28;20687;-48
2024/04/02 01:46:20;;;;;;;0.30;0.20;;;;;;;10.01;95.50;99248.38;4993357;28;20238;-48
2024/04/02 01:48:45;;;;;;;0.30;0.20;;;;;;;9.90;96.50;99252.41;4977230;28;20249;-48
2024/04/02 01:51:11;;;;;;;0.30;0.20;;;;;;;9.86;96.56;99256.97;4993435;28;20229;-47
2024/04/02 01:53:36;;;;;;;0.30;0.20;;;;;;;9.75;96.75;99254.78;4993274;28;20257;-48
2024/04/02 01:56:03;;;;;;;0.30;0.20;;;;;;;9.74;97.45;99249.56;4992839;28;20668;-47
2024/04/02 01:58:29;;;;;;;0.30;0.20;;;;;;;9.67;97.02;99256.03;4981375;28;20654;-49
2024/04/02 02:00:55;;;;;;;0.30;0.20;;;;;;;9.77;97.30;99252.06;4973672;28;20479;-47
2024/04/02 02:03:20;;;;;;;0.30;0.20;;;;;;;9.59;97.93;99258.13;4977948;28;20226;-49
2024/04/02 02:05:49;;;;;;;0.30;0.20;;;;;;;9.62;98.22;99256.22;4982524;28;20219;-48
2024/04/02 02:08:15;;;;;;;0.30;0.20;;;;;;;9.74;98.56;99258.38;4984161;28;20249;-48
2024/04/02 02:10:40;;;;;;;0.30;0.20;;;;;;;9.77;99.08;99262.69;4973513;28;20534;-47
2024/04/02 02:13:08;;;;;;;0.30;0.20;;;;;;;9.84;98.78;99255.31;4990950;28;20218;-48
2024/04/02 02:15:34;;;;;;;0.30;0.20;;;;;;;9.82;98.97;99266.00;4992856;28;20237;-48
2024/04/02 02:18:01;;;;;;;0.30;0.20;;;;;;;9.92;99.09;99266.47;4987610;28;20493;-48
2024/04/02 02:20:26;;;;;;;0.30;0.20;;;;;;;9.93;98.80;99279.69;4973570;28;20454;-47
2024/04/02 02:22:51;;;;;;;0.30;0.20;;;;;;;10.05;98.91;99280.97;4986067;28;20946;-48
2024/04/02 02:25:17;;;;;;;0.30;0.20;;;;;;;10.01;98.76;99282.88;4992567;28;20218;-48
2024/04/02 02:27:43;;;;;;;0.30;0.20;;;;;;;10.00;98.96;99285.59;4992548;28;20242;-48
2024/04/02 02:30:09;;;;;;;0.30;0.20;;;;;;;10.13;97.95;99284.13;4989961;28;20218;-47
2024/04/02 02:32:35;;;;;;;0.30;0.20;;;;;;;10.19;97.96;99289.19;4990283;28;20589;-48
2024/04/02 02:35:02;;;;;;;0.30;0.20;;;;;;;10.22;97.65;99285.56;4981152;28;20950;-47
2024/04/02 02:37:28;;;;;;;0.30;0.20;;;;;;;10.10;98.29;99285.13;4980686;28;20251;-48
2024/04/02 02:39:53;;;;;;;0.30;0.20;;;;;;;10.54;96.76;99295.63;4978868;28;20494;-47
2024/04/02 02:42:20;;;;;;;0.30;0.20;;;;;;;10.48;97.56;99292.41;4973379;28;20800;-48
2024/04/02 02:44:45;;;;;;;0.30;0.20;;;;;;;10.28;97.93;99298.56;4992456;28;20285;-47
2024/04/02 02:47:11;;;;;;;0.30;0.20;;;;;;;10.37;97.38;99299.03;4986776;28;20482;-47
2024/04/02 02:49:36;;;;;;;0.30;0.20;;;;;;;10.23;98.88;99298.78;4984141;28;20211;-47
2024/04/02 02:52:02;;;;;;;0.30;0.20;;;;;;;10.44;98.03;99299.66;4978150;28;20266;-48
2024/04/02 02:54:27;;;;;;;0.30;0.20;;;;;;;10.56;98.35;99300.91;4991985;28;20250;-50
2024/04/02 02:56:53;;;;;;;0.30;0.20;;;;;;;10.68;97.78;99298.53;4991928;28;20280;-50
2024/04/02 02:59:18;;;;;;;0.30;0.20;;;;;;;10.88;96.77;99295.00;4977240;28;20227;-50
2024/04/02 03:01:44;;;;;;;0.30;0.20;;;;;;;10.58;97.39;99301.69;4977463;28;20218;-49
2024/04/02 03:04:09;;;;;;;0.30;0.20;;;;;;;10.74;97.14;99310.72;4986644;28;20218;-50
2024/04/02 03:06:35;;;;;;;0.30;0.20;;;;;;;10.87;97.06;99303.03;4991596;28;20248;-49
2024/04/02 03:09:00;;;;;;;0.30;0.20;;;;;;;10.64;97.54;99318.22;4981210;28;20214;-50
2024/04/02 03:11:26;;;;;;;0.30;0.20;;;;;;;10.86;97.84;99311.94;4989785;28;20229;-50
2024/04/02 03:13:51;;;;;;;0.30;0.20;;;;;;;10.68;98.29;99313.63;4992040;28;20280;-50
2024/04/02 03:16:20;;;;;;;0.30;0.20;;;;;;;10.62;99.05;99300.63;4986979;28;20676;-50
2024/04/02 03:18:46;;;;;;;0.30;0.20;;;;;;;10.77;98.27;99318.53;4983124;28;20707;-50
2024/04/02 03:21:15;;;;;;;0.30;0.20;;;;;;;10.64;97.71;99320.00;4991823;28;20468;-50
2024/04/02 03:23:42;;;;;;;0.30;0.20;;;;;;;10.62;97.91;99320.09;4992048;28;20221;-50
2024/04/02 03:26:07;;;;;;;0.30;0.20;;;;;;;10.81;98.14;99311.28;4991662;28;20464;-51
2024/04/02 03:28:33;;;;;;;0.30;0.20;;;;;;;10.63;97.55;99316.50;4991977;28;20457;-50
2024/04/02 03:31:00;;;;;;;0.30;0.20;;;;;;;10.59;98.43;99314.06;4982062;28;20222;-50
2024/04/02 03:33:27;;;;;;;0.30;0.20;;;;;;;10.44;98.69;99317.38;4991495;28;20444;-50
2024/04/02 03:35:53;;;;;;;0.30;0.20;;;;;;;10.74;97.48;99326.66;4991568;28;20524;-50
2024/04/02 03:38:18;;;;;;;0.30;0.20;;;;;;;10.46;98.49;99320.84;4984356;28;20500;-50
2024/04/02 03:40:47;;;;;;;0.30;0.20;;;;;;;10.77;98.73;99329.16;4976598;28;20222;-49
2024/04/02 03:43:12;;;;;;;0.30;0.20;;;;;;;10.71;97.64;99329.47;4988615;28;20282;-50
2024/04/02 03:45:41;;;;;;;0.30;0.20;;;;;;;10.74;98.40;99331.09;4993143;28;20457;-50
2024/04/02 03:48:08;;;;;;;0.30;0.20;;;;;;;10.49;98.75;99333.97;4979345;28;20230;-50
2024/04/02 03:50:35;;;;;;;0.30;0.20;;;;;;;10.39;99.90;99338.81;4995488;28;20473;-49
2024/04/02 03:53:00;;;;;;;0.30;0.20;;;;;;;10.36;99.00;99331.00;4992716;28;20439;-50
2024/04/02 03:55:26;;;;;;;0.30;0.20;;;;;;;10.42;99.88;99335.19;4991003;28;20457;-51
2024/04/02 03:57:51;;;;;;;0.30;0.20;;;;;;;10.34;99.53;99338.16;4983259;28;20235;-51
2024/04/02 04:00:17;;;;;;;0.30;0.20;;;;;;;10.45;99.04;99332.41;4979158;28;20215;-51
2024/04/02 04:02:42;;;;;;;0.30;0.20;;;;;;;10.64;98.01;99338.63;4988051;28;20680;-50
2024/04/02 04:05:08;;;;;;;0.30;0.20;;;;;;;10.81;97.46;99344.03;4995147;28;20280;-51
2024/04/02 04:07:34;;;;;;;0.30;0.20;;;;;;;10.79;97.65;99348.56;4995240;28;20246;-51
2024/04/02 04:09:59;;;;;;;0.30;0.20;;;;;;;10.94;96.66;99353.19;4979205;28;20513;-51
2024/04/02 04:12:25;;;;;;;0.30;0.20;;;;;;;10.61;98.07;99352.91;4972229;28;20219;-51
2024/04/02 04:14:51;;;;;;;0.30;0.20;;;;;;;10.62;98.95;99353.78;4993771;28;20253;-51
2024/04/02 04:17:16;;;;;;;0.30;0.20;;;;;;;10.57;98.44;99353.13;4987895;28;20321;-51
2024/04/02 04:19:42;;;;;;;0.30;0.20;;;;;;;10.63;98.46;99356.34;4994633;28;20683;-51
2024/04/02 04:22:07;;;;;;;0.30;0.20;;;;;;;10.69;98.26;99347.28;4994944;28;20293;-50
2024/04/02 04:24:33;;;;;;;0.30;0.20;;;;;;;10.66;97.37;99358.88;4987184;28;20628;-50
2024/04/02 04:26:58;;;;;;;0.30;0.20;;;;;;;10.93;97.23;99356.78;4987682;28;20770;-50
2024/04/02 04:29:24;;;;;;;0.30;0.20;;;;;;;10.83;97.61;99362.59;4994865;28;20341;-51
2024/04/02 04:31:49;;;;;;;0.30;0.20;;;;;;;10.92;97.40;99370.16;4971787;28;20254;-49
2024/04/02 04:34:15;;;;;;;0.30;0.20;;;;;;;10.90;96.55;99369.38;4994857;28;20222;-49
2024/04/02 04:36:41;;;;;;;0.30;0.20;;;;;;;10.80;97.74;99363.59;4978213;28;20320;-50
2024/04/02 04:39:08;;;;;;;0.30;0.20;;;;;;;10.76;97.08;99363.78;4980889;28;20262;-50
2024/04/02 04:41:34;;;;;;;0.30;0.20;;;;;;;10.94;97.02;99362.97;4986961;28;20269;-50
2024/04/02 04:44:00;;;;;;;0.30;0.20;;;;;;;11.11;96.17;99364.88;4993708;28;20902;-49
2024/04/02 04:46:26;;;;;;;0.30;0.20;;;;;;;11.03;95.34;99367.00;4994151;28;20485;-50
2024/04/02 04:48:51;;;;;;;0.30;0.20;;;;;;;10.81;95.95;99369.75;4994422;28;20229;-50
2024/04/02 04:51:17;;;;;;;0.30;0.20;;;;;;;11.14;95.60;99370.06;4994453;28;20214;-50
2024/04/02 04:53:42;;;;;;;0.30;0.20;;;;;;;10.96;95.13;99380.59;4994192;28;20222;-50
2024/04/02 04:56:08;;;;;;;0.30;0.20;;;;;;;10.86;96.90;99381.94;4993330;28;20559;-50
2024/04/02 04:58:34;;;;;;;0.30;0.20;;;;;;;10.82;96.51;99392.75;4978309;28;20226;-50
2024/04/02 05:01:01;;;;;;;0.30;0.20;;;;;;;10.88;96.50;99384.53;4974230;28;20211;-50
2024/04/02 05:03:26;;;;;;;0.30;0.20;;;;;;;10.92;96.23;99400.25;4988459;28;20457;-49
2024/04/02 05:06:05;;;;;;;0.30;0.20;;;;;;;10.56;97.81;99399.22;4993443;28;20508;-50
2024/04/02 05:08:33;;;;;;;0.30;0.20;;;;;;;10.57;97.99;99393.84;4986875;28;20211;-50
2024/04/02 05:11:00;;;;;;;0.30;0.20;;;;;;;10.57;98.24;99385.88;4988034;28;20462;-50
2024/04/02 05:13:27;;;;;;;0.30;0.20;;;;;;;10.65;98.05;99399.66;4994008;28;20470;-50
2024/04/02 05:15:53;;;;;;;0.30;0.20;;;;;;;10.62;98.21;99405.13;4993762;28;20462;-50
2024/04/02 05:18:18;;;;;;;0.30;0.20;;;;;;;10.57;98.03;99407.13;4993647;28;21100;-50
2024/04/02 05:20:44;;;;;;;0.30;0.20;;;;;;;10.64;97.67;99413.91;4993607;28;20217;-50
2024/04/02 05:23:10;;;;;;;0.30;0.20;;;;;;;10.80;96.95;99424.72;4994017;28;20225;-50
2024/04/02 05:25:36;;;;;;;0.30;0.20;;;;;;;11.04;96.35;99424.59;4993316;28;20710;-50
2024/04/02 05:28:01;;;;;;;0.30;0.20;;;;;;;10.89;97.65;99428.78;4977458;28;20485;-50
2024/04/02 05:30:27;;;;;;;0.30;0.20;;;;;;;11.13;97.12;99429.50;4993371;28;20222;-50
2024/04/02 05:32:53;;;;;;;0.30;0.20;;;;;;;11.11;96.21;99432.25;4993534;28;20221;-50
2024/04/02 05:35:20;;;;;;;0.30;0.20;;;;;;;11.19;96.04;99437.19;4993398;28;20226;-50
2024/04/02 05:37:46;;;;;;;0.30;0.20;;;;;;;11.19;95.60;99432.75;4990773;28;20250;-50
2024/04/02 05:40:12;;;;;;;0.30;0.20;;;;;;;11.01;96.49;99433.56;4974316;28;20842;-50
2024/04/02 05:42:37;;;;;;;0.30;0.20;;;;;;;11.01;96.91;99436.22;4993412;28;20222;-50
2024/04/02 05:45:03;;;;;;;0.30;0.20;;;;;;;11.05;96.48;99442.28;4993244;28;20228;-50
2024/04/02 05:47:29;;;;;;;0.30;0.20;;;;;;;11.39;96.06;99437.19;4993483;28;20234;-50
2024/04/02 05:49:55;;;;;;;0.30;0.20;;;;;;;11.37;95.76;99441.69;4993221;28;20533;-50
2024/04/02 05:52:20;;;;;;;0.30;0.20;;;;;;;11.13;96.29;99437.50;4993463;28;20229;-50
2024/04/02 05:54:46;;;;;;;0.30;0.20;;;;;;;11.18;96.57;99443.44;4992827;28;20750;-50
2024/04/02 05:57:15;;;;;;;0.30;0.20;;;;;;;11.09;96.83;99438.53;4993331;28;20333;-50
2024/04/02 05:59:41;;;;;;;0.30;0.20;;;;;;;11.12;96.72;99441.94;4983149;28;20235;-50
2024/04/02 06:02:06;;;;;;;0.30;0.20;;;;;;;11.50;96.62;99437.53;4981142;28;20469;-50
2024/04/02 06:04:32;;;;;;;0.30;0.20;;;;;;;11.17;96.95;99452.38;4992973;28;20461;-50
2024/04/02 06:06:57;;;;;;;0.30;0.20;;;;;;;11.60;96.18;99450.41;4992967;28;20266;-50
2024/04/02 06:09:23;;;;;;;0.30;0.20;;;;;;;11.40;96.41;99454.88;4979666;28;20695;-50
2024/04/02 06:11:48;;;;;;;0.30;0.20;;;;;;;11.33;95.74;99458.72;4992642;28;20241;-50
2024/04/02 06:14:14;;;;;;;0.30;0.20;;;;;;;11.12;97.10;99465.88;4993013;28;20262;-51
2024/04/02 06:16:39;;;;;;;0.30;0.20;;;;;;;11.30;96.73;99471.31;4992950;28;20285;-50
2024/04/02 06:19:06;;;;;;;0.30;0.20;;;;;;;11.19;96.62;99474.44;4992551;28;20567;-50
2024/04/02 06:21:32;;;;;;;0.30;0.20;;;;;;;11.22;96.88;99471.63;4992921;28;20222;-50
2024/04/02 06:23:57;;;;;;;0.30;0.20;;;;;;;11.32;96.62;99475.63;4992703;28;20476;-50
2024/04/02 06:26:23;;;;;;;0.30;0.20;;;;;;;11.37;96.36;99476.25;4992556;28;20234;-50
2024/04/02 06:28:48;;;;;;;0.30;0.20;;;;;;;11.31;96.40;99479.22;4992682;28;20226;-50
2024/04/02 06:31:15;;;;;;;0.30;0.20;;;;;;;11.32;96.28;99480.94;4992223;28;20230;-50
2024/04/02 06:33:40;;;;;;;0.30;0.20;;;;;;;11.52;96.00;99485.38;4992442;28;20273;-50
2024/04/02 06:36:06;;;;;;;0.30;0.20;;;;;;;11.75;94.47;99485.16;4992394;28;20473;-51
2024/04/02 06:38:32;;;;;;;0.30;0.20;;;;;;;11.44;96.06;99491.03;4984121;28;20305;-50
2024/04/02 06:40:57;;;;;;;0.30;0.20;;;;;;;11.73;94.66;99492.38;4979690;28;20298;-50
2024/04/02 06:43:23;;;;;;;0.30;0.20;;;;;;;11.69;94.81;99497.91;4992481;28;20218;-51
2024/04/02 06:45:56;;;;;;;0.30;0.20;;;;;;;11.61;95.69;99497.41;4976055;28;20598;-50
2024/04/02 06:48:25;;;;;;;0.30;0.20;;;;;;;11.79;94.88;99494.81;4992214;28;20250;-50
2024/04/02 06:50:58;;;;;;;0.30;0.20;;;;;;;11.83;94.50;99506.16;4992142;28;20447;-51
2024/04/02 06:53:25;;;;;;;0.30;0.20;;;;;;;11.94;94.33;99503.00;4992147;28;20472;-50
2024/04/02 06:55:50;;;;;;;0.30;0.20;;;;;;;11.78;94.59;99511.66;4991844;28;20883;-50
2024/04/02 06:58:16;;;;;;;0.30;0.20;;;;;;;12.03;93.09;99513.22;4991741;28;20564;-50
2024/04/02 07:00:43;;;;;;;0.30;0.20;;;;;;;11.95;93.29;99510.94;4974261;28;20370;-50
2024/04/02 07:03:14;;;;;;;0.30;0.20;;;;;;;11.86;93.13;99511.34;4988474;28;20235;-50
2024/04/02 07:05:39;;;;;;;0.30;0.20;;;;;;;12.21;92.47;99519.50;4991750;28;20465;-49
2024/04/02 07:08:05;;;;;;;0.30;0.20;;;;;;;11.95;90.38;99518.06;4988709;28;20458;-50
2024/04/02 07:10:30;;;;;;;0.30;0.20;;;;;;;12.01;89.71;99517.75;4982167;28;20222;-50
2024/04/02 07:12:56;;;;;;;0.30;0.30;;;;;;;11.99;89.17;99527.63;4991767;28;20222;-50
2024/04/02 07:15:21;;;;;;;0.30;0.20;;;;;;;12.08;89.19;99533.38;4992107;28;20253;-50
2024/04/02 07:17:47;;;;;;;0.30;0.20;;;;;;;11.97;89.24;99535.69;4991727;28;20274;-50
2024/04/02 07:20:12;;;;;;;0.30;0.20;;;;;;;12.06;88.24;99535.28;4991077;28;21046;-50
2024/04/02 07:22:39;;;;;;;0.30;0.20;;;;;;;12.16;87.34;99533.00;4991697;28;20580;-50
2024/04/02 07:25:05;;;;;;;0.30;0.20;;;;;;;12.13;88.48;99542.03;4991725;28;20679;-50
2024/04/02 07:27:30;;;;;;;0.30;0.20;;;;;;;12.27;89.79;99540.50;4991477;28;20489;-50
2024/04/02 07:29:56;;;;;;;0.30;0.20;;;;;;;12.36;88.71;99540.94;4991816;28;20215;-50
2024/04/02 07:32:21;;;;;;;0.30;0.20;;;;;;;12.72;87.19;99540.06;4991488;28;20253;-50
2024/04/02 07:34:50;;;;;;;0.30;0.20;;;;;;;12.52;86.07;99535.72;4991977;28;20241;-50
2024/04/02 07:37:15;;;;;;;0.30;0.20;;;;;;;12.73;84.23;99536.47;4991223;28;21018;-50
2024/04/02 07:39:41;;;;;;;0.30;0.20;;;;;;;12.88;84.20;99533.03;4973400;28;20286;-50
2024/04/02 07:42:06;;;;;;;0.30;0.20;;;;;;;12.74;85.10;99547.03;4987389;28;20305;-50
2024/04/02 07:44:32;;;;;;;0.30;0.20;;;;;;;12.55;83.54;99543.56;4991584;28;20214;-50
2024/04/02 07:46:57;;;;;;;0.30;0.20;;;;;;;12.91;83.70;99540.03;4991531;28;20238;-50
2024/04/02 07:49:23;;;;;;;0.30;0.20;;;;;;;12.75;83.26;99547.94;4991813;28;20256;-50
2024/04/02 07:51:48;;;;;;;0.30;0.20;;;;;;;12.89;83.11;99544.59;4991551;28;20577;-50
2024/04/02 07:54:14;;;;;;;0.30;0.20;;;;;;;12.71;82.70;99541.00;4991659;28;20301;-50
2024/04/02 07:56:40;;;;;;;0.30;0.20;;;;;;;12.97;81.89;99553.06;4991155;28;20246;-50
2024/04/02 07:59:05;;;;;;;0.30;0.20;;;;;;;13.11;82.64;99553.22;4986514;28;20490;-50
2024/04/02 08:01:31;;;;;;;0.30;0.20;;;;;;;12.84;81.94;99562.59;4974566;28;20688;-50
2024/04/02 08:03:56;;;;;;;0.30;0.20;;;;;;;12.92;82.19;99566.63;4991590;28;20226;-50
2024/04/02 08:06:22;;;;;;;0.30;0.20;;;;;;;12.59;81.82;99568.28;4991374;28;20269;-50
2024/04/02 08:08:49;;;;;;;0.30;0.20;;;;;;;12.79;85.16;99572.66;4982727;28;20711;-50
2024/04/02 08:11:14;;;;;;;0.30;0.20;;;;;;;12.64;87.03;99559.13;4987434;28;20226;-50
2024/04/02 08:13:40;;;;;;;0.30;0.20;;;;;;;12.83;86.70;99561.75;4991556;28;20472;-50
2024/04/02 08:16:06;;;;;;;0.30;0.20;;;;;;;12.96;85.06;99570.88;4991159;28;20238;-50
2024/04/02 08:18:31;;;;;;;0.30;0.20;;;;;;;13.02;83.55;99572.38;4991430;28;20246;-49
2024/04/02 08:20:57;;;;;;;0.30;0.20;;;;;;;13.08;81.52;99576.53;4991053;28;20260;-49
2024/04/02 08:23:22;;;;;;;0.30;0.20;;;;;;;12.75;79.90;99572.81;4991414;28;20274;-49
2024/04/02 08:25:48;;;;;;;0.30;0.20;;;;;;;12.87;80.26;99583.78;4991154;28;20222;-49
2024/04/02 08:28:13;;;;;;;0.30;0.20;;;;;;;12.94;81.77;99582.56;4991140;28;20249;-49
2024/04/02 08:30:41;;;;;;;0.30;0.20;;;;;;;12.79;81.66;99584.19;4991434;28;20309;-49
2024/04/02 08:33:06;;;;;;;0.30;0.20;;;;;;;12.94;81.30;99575.41;4994745;28;20218;-49
2024/04/02 08:35:31;;;;;;;0.30;0.20;;;;;;;13.16;81.05;99577.03;4994395;28;20973;-49
2024/04/02 08:37:57;;;;;;;0.30;0.20;;;;;;;13.43;80.45;99580.97;4990313;28;20325;-49
2024/04/02 08:40:30;;;;;;;0.30;0.20;;;;;;;13.31;77.79;99587.81;4977336;28;20235;-49
2024/04/02 08:43:04;;;;;;;0.30;0.20;;;;;;;13.56;77.17;99587.38;4994723;28;20288;-49
2024/04/02 08:45:29;;;;;;;0.30;0.20;;;;;;;13.50;74.31;99586.84;4994561;28;20492;-48
2024/04/02 08:47:56;;;;;;;0.30;0.20;;;;;;;13.82;73.22;99593.16;4994757;28;20995;-49
2024/04/02 08:50:22;;;;;;;0.30;0.20;;;;;;;13.33;73.65;99593.94;4994668;28;20222;-49
2024/04/02 08:52:51;;;;;;;0.30;0.20;;;;;;;13.40;74.90;99591.78;4994358;28;20970;-49
2024/04/02 08:55:19;;;;;;;0.30;0.20;;;;;;;13.80;74.68;99605.75;4994244;28;20473;-49
2024/04/02 08:57:49;;;;;;;0.30;0.20;;;;;;;13.68;74.14;99588.56;4994026;28;20489;-49
2024/04/02 09:00:16;;;;;;;0.30;0.20;;;;;;;13.49;75.65;99610.03;4980029;28;20490;-49
2024/04/02 09:02:45;;;;;;;0.30;0.20;;;;;;;13.49;75.10;99609.16;4986880;28;20466;-49
2024/04/02 09:05:11;;;;;;;0.30;0.20;;;;;;;13.25;76.44;99608.59;4994154;28;20512;-49
2024/04/02 09:07:36;;;;;;;0.30;0.20;;;;;;;13.42;77.45;99616.59;4993969;28;21006;-49
2024/04/02 09:10:02;;;;;;;0.30;0.20;;;;;;;13.60;77.73;99628.16;4981351;28;20313;-50
2024/04/02 09:12:27;;;;;;;0.30;0.20;;;;;;;13.04;79.57;99639.88;4994281;28;20628;-49
2024/04/02 09:14:53;;;;;;;0.30;0.20;;;;;;;12.95;84.55;99646.50;4993684;28;20693;-49
2024/04/02 09:17:18;;;;;;;0.30;0.20;;;;;;;13.23;85.23;99639.84;4994122;28;20321;-49
2024/04/02 09:19:44;;;;;;;0.30;0.20;;;;;;;13.12;86.38;99637.66;4993599;28;20412;-49
2024/04/02 09:22:10;;;;;;;0.30;0.20;;;;;;;13.08;86.47;99649.44;4993748;28;20260;-50
2024/04/02 09:24:36;;;;;;;0.30;0.20;;;;;;;12.88;86.80;99641.53;4993762;28;20230;-50
2024/04/02 09:27:01;;;;;;;0.30;0.20;;;;;;;13.44;86.48;99635.25;4993615;28;20485;-49
2024/04/02 09:29:27;;;;;;;0.30;0.20;;;;;;;13.46;85.07;99638.69;4993666;28;20214;-50
2024/04/02 09:31:53;;;;;;;0.30;0.20;;;;;;;13.36;86.49;99640.09;4993728;28;20225;-50
2024/04/02 09:34:20;;;;;;;0.30;0.20;;;;;;;13.19;86.32;99641.81;4977737;28;20222;-50
2024/04/02 09:37:15;;;;;;;0.30;0.20;;;;;;;13.15;87.48;99640.19;4993501;28;20508;-50
2024/04/02 09:39:43;;;;;;;0.30;0.20;;;;;;;12.96;89.78;99634.03;4973280;28;20468;-50
2024/04/02 09:42:10;;;;;;;0.30;0.20;;;;;;;12.96;90.43;99642.03;4988904;28;20951;-50
2024/04/02 09:44:39;;;;;;;0.30;0.20;;;;;;;12.80;91.86;99633.03;4993364;28;20465;-50
2024/04/02 09:47:06;;;;;;;0.30;0.20;;;;;;;13.15;92.31;99649.97;4992922;28;20842;-49
2024/04/02 09:49:33;;;;;;;0.30;0.20;;;;;;;13.00;92.96;99649.78;4993352;28;20443;-49
2024/04/02 09:52:02;;;;;;;0.30;0.20;;;;;;;12.99;94.42;99650.75;4992978;28;20462;-49
2024/04/02 09:54:30;;;;;;;0.30;0.20;;;;;;;13.18;92.87;99657.88;4993152;28;20861;-50
2024/04/02 09:56:59;;;;;;;0.30;0.20;;;;;;;12.90;92.90;99659.22;4992748;28;20494;-50
2024/04/02 09:59:25;;;;;;;0.30;0.20;;;;;;;12.57;93.74;99661.66;4985371;28;20502;-50
2024/04/02 10:01:52;;;;;;;0.30;0.20;;;;;;;12.63;96.00;99661.38;4978282;28;20584;-50
2024/04/02 10:04:22;;;;;;;0.30;0.20;;;;;;;12.62;98.33;99662.31;4993108;28;20461;-50
2024/04/02 10:06:48;;;;;;;0.30;0.20;;;;;;;12.90;98.21;99656.53;4992639;28;20481;-50
2024/04/02 10:09:15;;;;;;;0.30;0.20;;;;;;;13.01;99.09;99651.53;4980551;28;20433;-50
2024/04/02 10:11:50;;;;;;;0.30;0.20;;;;;;;12.95;95.18;99657.16;4976108;28;20472;-50
2024/04/02 10:14:17;;;;;;;0.30;0.20;;;;;;;13.03;97.17;99655.00;4992550;28;20465;-50
2024/04/02 10:16:44;;;;;;;0.30;0.20;;;;;;;12.93;95.58;99652.84;4992634;28;20464;-50
2024/04/02 10:19:20;;;;;;;0.30;0.20;;;;;;;13.01;94.51;99656.00;4992178;28;20497;-50
2024/04/02 10:21:47;;;;;;;0.30;0.20;;;;;;;12.87;94.43;99656.66;4992677;28;20476;-50
2024/04/02 10:24:15;;;;;;;0.30;0.20;;;;;;;12.74;94.23;99663.53;4992133;28;20888;-50
2024/04/02 10:26:41;;;;;;;0.30;0.20;;;;;;;12.83;97.05;99662.22;4992068;28;21021;-50
2024/04/02 10:29:08;;;;;;;0.30;0.20;;;;;;;12.89;94.97;99667.28;4992338;28;20462;-50
2024/04/02 10:31:37;;;;;;;0.30;0.20;;;;;;;12.62;94.30;99669.47;4992543;28;20448;-50
2024/04/02 10:34:06;;;;;;;0.30;0.20;;;;;;;13.02;94.46;99655.94;4992303;28;20444;-51
2024/04/02 10:36:33;;;;;;;0.30;0.20;;;;;;;13.24;96.61;99652.25;4992209;28;20485;-50
2024/04/02 10:38:58;;;;;;;0.30;0.20;;;;;;;13.43;96.78;99646.84;4979946;28;20833;-51
2024/04/02 10:41:24;;;;;;;0.30;0.20;;;;;;;13.14;96.70;99654.47;4983325;28;20447;-51
2024/04/02 10:43:49;;;;;;;0.30;0.20;;;;;;;13.43;96.27;99647.72;4991922;28;20570;-51
2024/04/02 10:46:15;;;;;;;0.30;0.20;;;;;;;13.38;94.93;99644.41;4992221;28;20228;-51
2024/04/02 10:48:41;;;;;;;0.30;0.20;;;;;;;13.62;95.34;99644.97;4992254;28;20214;-51
2024/04/02 10:51:10;;;;;;;0.30;0.20;;;;;;;13.95;95.43;99653.03;4992407;28;20219;-51
2024/04/02 10:53:36;;;;;;;0.30;0.20;;;;;;;13.94;91.94;99640.63;4991291;28;20470;-51
2024/04/02 10:56:02;;;;;;;0.30;0.20;;;;;;;13.90;90.04;99636.38;4991903;28;20214;-51
2024/04/02 10:58:28;;;;;;;0.30;0.20;;;;;;;13.83;89.87;99645.66;4991895;28;20660;-51
2024/04/02 11:00:54;;;;;;;0.30;0.20;;;;;;;13.94;90.69;99649.50;4972722;28;20472;-51
2024/04/02 11:03:19;;;;;;;0.30;0.20;;;;;;;13.82;90.69;99655.47;4989304;28;20218;-51
2024/04/02 11:05:46;;;;;;;0.30;0.20;;;;;;;13.76;92.56;99658.47;4992040;28;20218;-51
2024/04/02 11:08:12;;;;;;;0.30;0.20;;;;;;;13.74;92.71;99654.16;4991360;28;20244;-51
2024/04/02 11:10:47;;;;;;;0.30;0.20;;;;;;;13.41;93.40;99662.06;4991886;28;20454;-51
2024/04/02 11:13:23;;;;;;;0.30;0.20;;;;;;;13.67;94.43;99664.28;4991829;28;20440;-50
2024/04/02 11:15:49;;;;;;;0.30;0.20;;;;;;;13.71;93.99;99668.56;4991811;28;20452;-51
2024/04/02 11:18:22;;;;;;;0.30;0.20;;;;;;;13.78;92.70;99671.75;4991589;28;20495;-51
2024/04/02 11:20:54;;;;;;;0.30;0.20;;;;;;;13.61;93.40;99669.94;4991779;28;20222;-51
2024/04/02 11:26:12;;;;;;;0.30;0.20;;;;;;;13.19;93.91;99681.84;4991531;28;20462;-50
2024/04/02 11:28:37;;;;;;;0.30;0.20;;;;;;;13.18;95.43;99674.78;4991765;28;20458;-50
2024/04/02 11:31:04;;;;;;;0.30;0.20;;;;;;;13.44;95.26;99680.63;4991433;28;20547;-51
2024/04/02 11:33:29;;;;;;;0.30;0.20;;;;;;;13.33;93.97;99682.03;4991515;28;20237;-51